createdAt,value
2018-03-01T00:00:50.752Z,101167.09
2018-03-01T00:03:19.659Z,101155.14
2018-03-01T00:05:49.042Z,101166.69
2018-03-01T00:08:18.475Z,101162.89
2018-03-01T00:10:49.160Z,101146.70
2018-03-01T00:13:20.767Z,101167.20
2018-03-01T00:15:51.354Z,101165.92
2018-03-01T00:18:22.673Z,101159.09
2018-03-01T00:20:53.116Z,101160.42
2018-03-01T00:23:23.952Z,101161.30
2018-03-01T00:25:54.284Z,101155.75
2018-03-01T00:28:25.777Z,101156.19
2018-03-01T00:30:56.023Z,101155.77
2018-03-01T00:33:25.661Z,101151.10
2018-03-01T00:35:58.333Z,101154.97
2018-03-01T00:38:29.076Z,101152.01
2018-03-01T00:41:00.703Z,101151.59
2018-03-01T00:43:29.932Z,101153.31
2018-03-01T00:46:02.072Z,101157.18
2018-03-01T00:48:32.245Z,101142.24
2018-03-01T00:51:02.587Z,101126.86
2018-03-01T00:53:33.115Z,101132.87
2018-03-01T00:56:03.558Z,101123.03
2018-03-01T00:58:36.629Z,101122.63
2018-03-01T01:01:08.452Z,101120.91
2018-03-01T01:03:40.247Z,101128.21
2018-03-01T01:06:09.579Z,101129.53
2018-03-01T01:08:41.090Z,101103.10
2018-03-01T01:11:12.191Z,101109.44
2018-03-01T01:13:41.876Z,101108.20
2018-03-01T01:16:14.245Z,101104.80
2018-03-01T01:18:44.815Z,101103.53
2018-03-01T01:21:14.475Z,101101.39
2018-03-01T01:23:44.754Z,101097.98
2018-03-01T01:26:16.024Z,101097.20
2018-03-01T01:28:45.698Z,101102.76
2018-03-01T01:31:16.081Z,101088.21
2018-03-01T01:33:47.127Z,101085.22
2018-03-01T01:36:19.485Z,101076.67
2018-03-01T01:38:50.356Z,101070.70
2018-03-01T01:41:20.979Z,101062.17
2018-03-01T01:43:52.494Z,101059.61
2018-03-01T01:46:22.389Z,101063.47
2018-03-01T01:48:52.744Z,101060.94
2018-03-01T01:51:22.831Z,101058.80
2018-03-01T01:53:54.780Z,101054.52
2018-03-01T01:56:28.109Z,101055.81
2018-03-01T01:58:57.476Z,101054.53
2018-03-01T02:01:29.237Z,101050.25
2018-03-01T02:03:58.656Z,101051.55
2018-03-01T02:06:30.363Z,101056.70
2018-03-01T02:09:01.267Z,101057.16
2018-03-01T02:11:30.687Z,101042.61
2018-03-01T02:14:02.425Z,101047.33
2018-03-01T02:16:32.920Z,101047.34
2018-03-01T02:19:03.667Z,101035.42
2018-03-01T02:21:33.332Z,101034.58
2018-03-01T02:24:04.371Z,101028.14
2018-03-01T02:26:37.296Z,101040.57
2018-03-01T02:29:07.232Z,101038.01
2018-03-01T02:31:37.943Z,101037.58
2018-03-01T02:34:07.968Z,101039.73
2018-03-01T02:36:39.472Z,101033.32
2018-03-01T02:39:10.487Z,101021.36
2018-03-01T02:41:39.711Z,101014.55
2018-03-01T02:44:11.443Z,101021.83
2018-03-01T02:46:42.645Z,101018.39
2018-03-01T02:49:13.578Z,101023.11
2018-03-01T02:51:43.117Z,101020.55
2018-03-01T02:54:17.414Z,101011.61
2018-03-01T02:56:48.850Z,101015.00
2018-03-01T02:59:20.311Z,101009.91
2018-03-01T03:01:51.159Z,100994.97
2018-03-01T03:04:23.388Z,101000.09
2018-03-01T03:06:53.908Z,100989.44
2018-03-01T03:09:23.879Z,100989.85
2018-03-01T03:12:01.051Z,100990.28
2018-03-01T03:14:30.622Z,100984.34
2018-03-01T03:17:01.673Z,100984.78
2018-03-01T03:19:30.759Z,100982.67
2018-03-01T03:22:00.856Z,100983.09
2018-03-01T03:24:30.395Z,100982.70
2018-03-01T03:27:01.469Z,100952.44
2018-03-01T03:29:33.251Z,100990.80
2018-03-01T03:32:04.259Z,100982.70
2018-03-01T03:34:34.348Z,100987.84
2018-03-01T03:37:03.711Z,100984.45
2018-03-01T03:39:33.837Z,100989.58
2018-03-01T03:42:05.292Z,100979.75
2018-03-01T03:44:36.670Z,100977.21
2018-03-01T03:47:09.796Z,100986.21
2018-03-01T03:49:39.296Z,100976.80
2018-03-01T03:52:08.716Z,100975.12
2018-03-01T03:54:38.669Z,100982.37
2018-03-01T03:57:09.740Z,100959.75
2018-03-01T03:59:40.738Z,100972.97
2018-03-01T04:02:10.583Z,100972.53
2018-03-01T04:04:41.291Z,100969.10
2018-03-01T04:07:12.822Z,100969.11
2018-03-01T04:09:43.380Z,100972.13
2018-03-01T04:12:14.314Z,100974.27
2018-03-01T04:14:45.515Z,100978.53
2018-03-01T04:17:15.373Z,100981.53
2018-03-01T04:19:46.990Z,100978.97
2018-03-01T04:22:20.841Z,100973.45
2018-03-01T04:24:50.848Z,100970.46
2018-03-01T04:27:21.373Z,100969.18
2018-03-01T04:29:51.597Z,100961.07
2018-03-01T04:32:24.358Z,100961.91
2018-03-01T04:34:53.750Z,100959.79
2018-03-01T04:37:25.765Z,100957.67
2018-03-01T04:39:54.911Z,100955.55
2018-03-01T04:42:26.612Z,100946.58
2018-03-01T04:44:57.075Z,100944.87
2018-03-01T04:47:28.121Z,100949.56
2018-03-01T04:49:59.105Z,100948.73
2018-03-01T04:52:29.514Z,100948.30
2018-03-01T04:55:00.433Z,100944.88
2018-03-01T04:57:31.192Z,100940.66
2018-03-01T05:00:02.260Z,100934.65
2018-03-01T05:02:36.706Z,100935.52
2018-03-01T05:05:06.440Z,100926.14
2018-03-01T05:07:36.110Z,100941.09
2018-03-01T05:10:07.660Z,100931.27
2018-03-01T05:12:38.064Z,100941.55
2018-03-01T05:15:09.104Z,100943.69
2018-03-01T05:17:39.627Z,100956.05
2018-03-01T05:20:10.051Z,100952.64
2018-03-01T05:22:40.895Z,100953.08
2018-03-01T05:25:11.663Z,100956.06
2018-03-01T05:27:43.660Z,100958.63
2018-03-01T05:30:14.538Z,100950.08
2018-03-01T05:32:45.147Z,100950.11
2018-03-01T05:35:15.727Z,100947.97
2018-03-01T05:37:47.222Z,100948.38
2018-03-01T05:40:18.531Z,100939.03
2018-03-01T05:42:49.169Z,100936.45
2018-03-01T05:45:20.874Z,100940.28
2018-03-01T05:47:52.511Z,100934.33
2018-03-01T05:50:21.950Z,100928.80
2018-03-01T05:52:53.829Z,100936.05
2018-03-01T05:55:26.610Z,100925.40
2018-03-01T05:57:55.791Z,100919.84
2018-03-01T06:00:25.624Z,100929.23
2018-03-01T06:02:55.364Z,100927.53
2018-03-01T06:05:29.003Z,100928.82
2018-03-01T06:07:58.755Z,100926.66
2018-03-01T06:10:29.073Z,100927.95
2018-03-01T06:13:00.408Z,100923.67
2018-03-01T06:15:30.501Z,100921.11
2018-03-01T06:18:01.226Z,100927.48
2018-03-01T06:20:34.004Z,100922.34
2018-03-01T06:23:05.502Z,100921.03
2018-03-01T06:25:37.491Z,100918.02
2018-03-01T06:28:09.085Z,100913.34
2018-03-01T06:30:38.667Z,100917.59
2018-03-01T06:33:08.379Z,100910.77
2018-03-01T06:35:40.764Z,100911.21
2018-03-01T06:38:09.889Z,100917.59
2018-03-01T06:40:41.150Z,100912.45
2018-03-01T06:43:11.798Z,100903.53
2018-03-01T06:45:43.945Z,100895.44
2018-03-01T06:48:13.623Z,100890.69
2018-03-01T06:50:45.410Z,100883.00
2018-03-01T06:53:17.837Z,100877.87
2018-03-01T06:55:47.048Z,100877.45
2018-03-01T06:58:18.959Z,100868.47
2018-03-01T07:00:50.226Z,100868.91
2018-03-01T07:03:19.603Z,100869.73
2018-03-01T07:05:50.367Z,100866.30
2018-03-01T07:08:21.725Z,100848.77
2018-03-01T07:10:52.305Z,100849.15
2018-03-01T07:13:22.723Z,100854.17
2018-03-01T07:15:54.439Z,100850.33
2018-03-01T07:18:25.276Z,100847.73
2018-03-01T07:20:55.724Z,100836.16
2018-03-01T07:23:25.255Z,100826.36
2018-03-01T07:25:56.898Z,100831.84
2018-03-01T07:28:27.366Z,100829.25
2018-03-01T07:30:58.026Z,100827.09
2018-03-01T07:33:28.871Z,100817.67
2018-03-01T07:36:00.046Z,100816.41
2018-03-01T07:38:30.404Z,100822.83
2018-03-01T07:41:01.092Z,100820.27
2018-03-01T07:43:32.323Z,100813.78
2018-03-01T07:46:03.505Z,100807.31
2018-03-01T07:48:35.037Z,100809.33
2018-03-01T07:51:04.634Z,100809.22
2018-03-01T07:53:33.963Z,100808.67
2018-03-01T07:56:04.759Z,100804.34
2018-03-01T07:58:36.858Z,100810.27
2018-03-01T08:01:07.400Z,100808.61
2018-03-01T08:03:39.920Z,100797.44
2018-03-01T08:06:09.559Z,100794.81
2018-03-01T08:08:40.705Z,100796.02
2018-03-01T08:11:11.243Z,100780.26
2018-03-01T08:13:40.972Z,100793.37
2018-03-01T08:16:11.588Z,100795.00
2018-03-01T08:18:41.399Z,100795.45
2018-03-01T08:21:12.410Z,100780.81
2018-03-01T08:23:43.352Z,100777.75
2018-03-01T08:26:14.433Z,100777.59
2018-03-01T08:28:44.356Z,100770.61
2018-03-01T08:31:13.703Z,100764.20
2018-03-01T08:33:43.293Z,100755.46
2018-03-01T08:36:12.544Z,100756.02
2018-03-01T08:38:41.811Z,100757.86
2018-03-01T08:41:10.948Z,100747.72
2018-03-01T08:43:39.996Z,100750.95
2018-03-01T08:46:09.079Z,100749.02
2018-03-01T08:48:38.342Z,100748.06
2018-03-01T08:51:07.111Z,100746.68
2018-03-01T08:53:36.196Z,100750.88
2018-03-01T08:56:05.233Z,100750.31
2018-03-01T08:58:34.158Z,100751.50
2018-03-01T09:01:03.713Z,100741.56
2018-03-01T09:03:32.827Z,100743.55
2018-03-01T09:06:01.830Z,100749.19
2018-03-01T09:08:30.911Z,100740.39
2018-03-01T09:11:00.322Z,100736.30
2018-03-01T09:13:29.330Z,100737.91
2018-03-01T09:15:58.610Z,100739.02
2018-03-01T09:18:27.571Z,100731.59
2018-03-01T09:20:57.044Z,100728.45
2018-03-01T09:23:26.313Z,100727.03
2018-03-01T09:25:55.202Z,100725.20
2018-03-01T09:28:23.982Z,100731.53
2018-03-01T09:30:53.599Z,100722.61
2018-03-01T09:33:23.339Z,100724.30
2018-03-01T09:35:52.679Z,100732.36
2018-03-01T09:38:21.820Z,100731.95
2018-03-01T09:40:50.931Z,100723.41
2018-03-01T09:43:19.819Z,100730.23
2018-03-01T09:45:48.822Z,100730.27
2018-03-01T09:48:18.028Z,100719.73
2018-03-01T09:50:46.834Z,100721.77
2018-03-01T09:53:15.749Z,100710.31
2018-03-01T09:55:45.214Z,100708.63
2018-03-01T09:58:14.400Z,100708.46
2018-03-01T10:00:43.402Z,100706.70
2018-03-01T10:03:12.393Z,100694.23
2018-03-01T10:05:41.248Z,100692.77
2018-03-01T10:08:10.216Z,100689.33
2018-03-01T10:10:39.155Z,100690.56
2018-03-01T10:13:07.947Z,100682.59
2018-03-01T10:15:36.743Z,100684.55
2018-03-01T10:18:05.789Z,100676.11
2018-03-01T10:20:34.892Z,100669.23
2018-03-01T10:23:03.872Z,100673.09
2018-03-01T10:25:32.781Z,100660.61
2018-03-01T10:28:01.974Z,100653.32
2018-03-01T10:30:30.808Z,100653.34
2018-03-01T10:32:59.849Z,100638.70
2018-03-01T10:35:28.904Z,100639.68
2018-03-01T10:37:57.692Z,100637.66
2018-03-01T10:40:26.732Z,100630.84
2018-03-01T10:42:55.760Z,100632.38
2018-03-01T10:45:24.960Z,100624.52
2018-03-01T10:47:54.134Z,100637.26
2018-03-01T10:50:22.971Z,100625.70
2018-03-01T10:52:51.861Z,100615.39
2018-03-01T10:55:20.716Z,100608.81
2018-03-01T10:57:50.079Z,100613.19
2018-03-01T11:00:24.465Z,100603.09
2018-03-01T11:02:53.635Z,100603.00
2018-03-01T11:05:22.606Z,100599.19
2018-03-01T11:07:51.743Z,100584.98
2018-03-01T11:10:20.764Z,100586.24
2018-03-01T11:12:49.791Z,100583.97
2018-03-01T11:15:18.795Z,100585.23
2018-03-01T11:17:47.610Z,100574.52
2018-03-01T11:20:16.557Z,100578.56
2018-03-01T11:22:45.820Z,100571.91
2018-03-01T11:25:14.611Z,100563.77
2018-03-01T11:27:43.736Z,100562.27
2018-03-01T11:30:12.845Z,100560.84
2018-03-01T11:32:41.939Z,100552.88
2018-03-01T11:35:10.691Z,100549.89
2018-03-01T11:37:39.865Z,100554.16
2018-03-01T11:40:09.132Z,100544.98
2018-03-01T11:42:38.255Z,100548.00
2018-03-01T11:45:07.477Z,100545.59
2018-03-01T11:47:36.607Z,100536.63
2018-03-01T11:50:05.716Z,100531.86
2018-03-01T11:52:34.872Z,100520.16
2018-03-01T11:55:04.034Z,100529.19
2018-03-01T11:57:33.655Z,100525.52
2018-03-01T12:00:04.185Z,100522.52
2018-03-01T12:02:34.385Z,100522.98
2018-03-01T12:05:06.259Z,100522.16
2018-03-01T12:07:36.068Z,100521.20
2018-03-01T12:10:06.825Z,100518.85
2018-03-01T12:12:37.432Z,100506.62
2018-03-01T12:15:08.172Z,100507.47
2018-03-01T12:17:39.638Z,100504.66
2018-03-01T12:20:10.196Z,100492.61
2018-03-01T12:22:41.532Z,100488.72
2018-03-01T12:25:12.304Z,100479.12
2018-03-01T12:27:43.133Z,100475.13
2018-03-01T12:30:13.988Z,100472.47
2018-03-01T12:32:44.608Z,100477.33
2018-03-01T12:35:15.380Z,100475.73
2018-03-01T12:37:46.195Z,100467.09
2018-03-01T12:40:17.158Z,100467.14
2018-03-01T12:42:48.613Z,100464.64
2018-03-01T12:45:20.005Z,100459.72
2018-03-01T12:47:50.862Z,100453.42
2018-03-01T12:50:21.686Z,100447.63
2018-03-01T12:52:52.426Z,100450.92
2018-03-01T12:55:23.804Z,100445.08
2018-03-01T12:57:54.521Z,100441.03
2018-03-01T13:00:24.992Z,100440.14
2018-03-01T13:02:56.225Z,100436.34
2018-03-01T13:05:27.727Z,100428.71
2018-03-01T13:07:58.709Z,100426.05
2018-03-01T13:10:41.444Z,100425.07
2018-03-01T13:13:10.503Z,100423.70
2018-03-01T13:15:39.831Z,100422.80
2018-03-01T13:18:09.051Z,100408.20
2018-03-01T13:20:38.023Z,100408.73
2018-03-01T13:23:20.534Z,100408.89
2018-03-01T13:25:49.525Z,100399.34
2018-03-01T13:28:18.505Z,100393.27
2018-03-01T13:30:48.546Z,100398.27
2018-03-01T13:36:19.545Z,100387.53
2018-03-01T13:38:48.674Z,100379.37
2018-03-01T13:41:17.743Z,100365.34
2018-03-01T13:43:46.643Z,100356.02
2018-03-01T13:46:15.631Z,100356.19
2018-03-01T13:48:44.599Z,100354.45
2018-03-01T13:51:13.764Z,100346.39
2018-03-01T13:53:42.586Z,100337.38
2018-03-01T13:56:11.525Z,100336.64
2018-03-01T13:58:40.601Z,100333.25
2018-03-01T14:01:09.551Z,100325.44
2018-03-01T14:03:38.590Z,100326.21
2018-03-01T14:06:08.439Z,100326.18
2018-03-01T14:08:37.449Z,100324.58
2018-03-01T14:11:06.328Z,100315.10
2018-03-01T14:13:42.434Z,100304.69
2018-03-01T14:16:11.504Z,100304.31
2018-03-01T14:21:45.087Z,100297.95
2018-03-01T14:24:16.627Z,100296.97
2018-03-01T14:27:01.302Z,100294.89
2018-03-01T14:29:31.003Z,100293.12
2018-03-01T14:31:59.730Z,100284.62
2018-03-01T14:34:28.751Z,100290.26
2018-03-01T14:36:57.984Z,100282.03
2018-03-01T14:39:26.772Z,100283.14
2018-03-01T14:41:55.934Z,100291.58
2018-03-01T14:44:25.226Z,100285.91
2018-03-01T14:46:54.075Z,100273.03
2018-03-01T14:49:22.908Z,100276.97
2018-03-01T14:51:52.129Z,100274.28
2018-03-01T14:54:21.060Z,100279.84
2018-03-01T14:56:50.043Z,100271.33
2018-03-01T14:59:19.123Z,100270.87
2018-03-01T15:01:47.920Z,100269.05
2018-03-01T15:04:18.963Z,100266.29
2018-03-01T15:06:47.824Z,100255.96
2018-03-01T15:09:16.707Z,100253.28
2018-03-01T15:11:45.772Z,100245.91
2018-03-01T15:14:14.784Z,100236.91
2018-03-01T15:16:43.674Z,100224.52
2018-03-01T15:19:13.256Z,100232.98
2018-03-01T15:21:42.090Z,100229.88
2018-03-01T15:24:10.879Z,100237.67
2018-03-01T15:26:39.712Z,100235.28
2018-03-01T15:29:09.433Z,100232.30
2018-03-01T15:31:38.611Z,100224.88
2018-03-01T15:34:07.524Z,100228.58
2018-03-01T15:36:36.648Z,100224.02
2018-03-01T15:39:05.052Z,100225.32
2018-03-01T15:41:34.268Z,100228.98
2018-03-01T15:44:04.124Z,100237.04
2018-03-01T15:46:33.940Z,100238.11
2018-03-01T15:49:03.347Z,100234.03
2018-03-01T15:51:32.506Z,100232.66
2018-03-01T15:54:01.453Z,100230.23
2018-03-01T15:56:30.617Z,100228.49
2018-03-01T15:58:59.764Z,100228.04
2018-03-01T16:01:30.468Z,100214.92
2018-03-01T16:04:00.183Z,100216.81
2018-03-01T16:06:30.931Z,100212.20
2018-03-01T16:09:00.762Z,100221.35
2018-03-01T16:11:31.412Z,100215.39
2018-03-01T16:14:02.141Z,100215.87
2018-03-01T16:16:33.514Z,100213.95
2018-03-01T16:19:04.331Z,100210.67
2018-03-01T16:21:35.702Z,100215.67
2018-03-01T16:24:06.326Z,100217.00
2018-03-01T16:26:37.430Z,100218.87
2018-03-01T16:29:08.300Z,100216.31
2018-03-01T16:31:39.230Z,100219.50
2018-03-01T16:34:15.395Z,100217.66
2018-03-01T16:36:44.571Z,100218.84
2018-03-01T16:39:13.837Z,100219.87
2018-03-01T16:41:44.511Z,100223.64
2018-03-01T16:44:14.997Z,100231.45
2018-03-01T16:46:45.971Z,100221.48
2018-03-01T16:49:17.392Z,100227.78
2018-03-01T16:51:48.041Z,100226.91
2018-03-01T16:54:18.790Z,100224.92
2018-03-01T16:56:49.832Z,100228.81
2018-03-01T16:59:21.839Z,100228.56
2018-03-01T17:01:52.453Z,100223.54
2018-03-01T17:04:23.340Z,100227.08
2018-03-01T17:06:54.889Z,100231.55
2018-03-01T17:09:24.472Z,100225.07
2018-03-01T17:11:55.025Z,100233.88
2018-03-01T17:14:26.643Z,100236.29
2018-03-01T17:16:56.108Z,100235.56
2018-03-01T17:19:26.910Z,100233.45
2018-03-01T17:21:57.882Z,100231.89
2018-03-01T17:24:28.886Z,100230.77
2018-03-01T17:26:59.884Z,100238.62
2018-03-01T17:29:30.791Z,100243.32
2018-03-01T17:32:01.407Z,100242.14
2018-03-01T17:34:31.861Z,100241.70
2018-03-01T17:37:02.490Z,100240.06
2018-03-01T17:39:33.963Z,100237.08
2018-03-01T17:42:04.955Z,100234.38
2018-03-01T17:44:35.896Z,100234.06
2018-03-01T17:47:06.677Z,100229.52
2018-03-01T17:49:37.683Z,100231.36
2018-03-01T17:52:09.543Z,100225.17
2018-03-01T17:54:39.253Z,100235.06
2018-03-01T17:57:10.595Z,100225.12
2018-03-01T17:59:41.512Z,100230.84
2018-03-01T18:02:12.165Z,100225.26
2018-03-01T18:04:42.876Z,100226.56
2018-03-01T18:07:15.939Z,100217.84
2018-03-01T18:09:45.505Z,100218.53
2018-03-01T18:12:16.115Z,100212.48
2018-03-01T18:14:46.832Z,100210.64
2018-03-01T18:17:17.821Z,100207.50
2018-03-01T18:19:48.719Z,100206.17
2018-03-01T18:22:19.642Z,100205.78
2018-03-01T18:24:50.595Z,100201.94
2018-03-01T18:27:22.831Z,100205.39
2018-03-01T18:29:53.354Z,100205.19
2018-03-01T18:32:24.047Z,100202.42
2018-03-01T18:34:55.065Z,100206.45
2018-03-01T18:37:25.737Z,100199.27
2018-03-01T18:39:56.541Z,100199.58
2018-03-01T18:42:28.080Z,100207.22
2018-03-01T18:45:00.429Z,100205.59
2018-03-01T18:47:30.858Z,100204.56
2018-03-01T18:50:02.111Z,100210.63
2018-03-01T18:52:32.843Z,100212.84
2018-03-01T18:55:03.411Z,100203.74
2018-03-01T18:57:33.796Z,100203.33
2018-03-01T19:00:04.734Z,100200.71
2018-03-01T19:02:35.598Z,100197.31
2018-03-01T19:05:06.167Z,100199.86
2018-03-01T19:07:37.800Z,100200.33
2018-03-01T19:10:08.224Z,100200.72
2018-03-01T19:12:39.284Z,100196.36
2018-03-01T19:15:10.151Z,100190.61
2018-03-01T19:17:41.011Z,100166.37
2018-03-01T19:20:10.940Z,100194.23
2018-03-01T19:22:43.437Z,100194.27
2018-03-01T19:25:14.065Z,100183.86
2018-03-01T19:27:44.982Z,100182.05
2018-03-01T19:37:17.061Z,100163.89
2018-03-01T19:39:45.892Z,100162.59
2018-03-01T19:42:14.720Z,100165.97
2018-03-01T19:44:43.841Z,100170.97
2018-03-01T19:47:12.741Z,100167.98
2018-03-01T19:49:41.808Z,100162.52
2018-03-01T19:52:10.783Z,100164.27
2018-03-01T19:54:39.789Z,100161.01
2018-03-01T19:57:08.597Z,100160.42
2018-03-01T19:59:37.867Z,100163.62
2018-03-01T20:02:06.802Z,100153.70
2018-03-01T20:04:35.823Z,100153.44
2018-03-01T20:07:04.563Z,100147.34
2018-03-01T20:09:33.780Z,100156.55
2018-03-01T20:12:02.785Z,100157.11
2018-03-01T20:14:31.830Z,100159.02
2018-03-01T20:17:01.106Z,100148.44
2018-03-01T20:19:30.128Z,100143.44
2018-03-01T20:21:59.015Z,100153.31
2018-03-01T20:24:27.861Z,100154.30
2018-03-01T20:26:56.791Z,100154.20
2018-03-01T20:29:25.921Z,100156.16
2018-03-01T20:31:54.767Z,100150.03
2018-03-01T20:34:23.815Z,100139.36
2018-03-01T20:36:52.825Z,100136.39
2018-03-01T20:39:22.480Z,100141.30
2018-03-01T20:41:51.585Z,100145.22
2018-03-01T20:44:20.768Z,100137.12
2018-03-01T20:46:49.700Z,100136.42
2018-03-01T20:49:18.724Z,100135.25
2018-03-01T20:51:47.935Z,100135.62
2018-03-01T20:54:16.855Z,100132.89
2018-03-01T20:56:45.705Z,100127.84
2018-03-01T20:59:14.931Z,100127.64
2018-03-01T21:01:43.821Z,100127.24
2018-03-01T21:04:13.651Z,100129.51
2018-03-01T21:06:42.885Z,100128.28
2018-03-01T21:09:11.823Z,100123.05
2018-03-01T21:11:41.536Z,100126.02
2018-03-01T21:14:10.569Z,100120.16
2018-03-01T21:16:39.769Z,100112.95
2018-03-01T21:19:08.621Z,100112.30
2018-03-01T21:21:37.890Z,100108.88
2018-03-01T21:24:06.751Z,100109.11
2018-03-01T21:26:35.433Z,100105.34
2018-03-01T21:29:04.402Z,100093.32
2018-03-01T21:31:33.506Z,100090.75
2018-03-01T21:34:02.620Z,100082.38
2018-03-01T21:36:31.731Z,100081.83
2018-03-01T21:39:00.643Z,100082.34
2018-03-01T21:41:29.683Z,100077.20
2018-03-01T21:43:59.311Z,100073.38
2018-03-01T21:46:28.613Z,100071.45
2018-03-01T21:48:57.684Z,100063.12
2018-03-01T21:51:27.280Z,100068.29
2018-03-01T21:53:56.136Z,100072.23
2018-03-01T21:56:24.643Z,100071.75
2018-03-01T21:58:54.446Z,100069.38
2018-03-01T22:01:23.593Z,100057.09
2018-03-01T22:03:52.991Z,100065.84
2018-03-01T22:06:22.231Z,100067.67
2018-03-01T22:08:51.360Z,100061.45
2018-03-01T22:11:20.480Z,100064.38
2018-03-01T22:13:55.637Z,100061.50
2018-03-01T22:16:24.767Z,100058.88
2018-03-01T22:18:53.890Z,100057.58
2018-03-01T22:21:23.199Z,100044.90
2018-03-01T22:23:52.419Z,100044.38
2018-03-01T22:26:21.498Z,100032.84
2018-03-01T22:28:50.654Z,100033.87
2018-03-01T22:31:19.978Z,100025.80
2018-03-01T22:33:49.777Z,100030.44
2018-03-01T22:36:21.570Z,100028.62
2018-03-01T22:38:51.321Z,100030.81
2018-03-01T22:41:22.776Z,100033.66
2018-03-01T22:43:52.768Z,100040.66
2018-03-01T22:46:23.153Z,100030.09
2018-03-01T22:48:54.143Z,100029.64
2018-03-01T22:51:25.296Z,100028.97
2018-03-01T22:53:57.582Z,100022.69
2018-03-01T22:56:28.022Z,100029.56
2018-03-01T22:58:58.841Z,100022.36
2018-03-01T23:01:30.736Z,100019.69
2018-03-01T23:04:01.345Z,100026.64
2018-03-01T23:06:33.026Z,100008.50
2018-03-01T23:09:03.238Z,100015.00
2018-03-01T23:11:33.560Z,100008.41
2018-03-01T23:14:03.563Z,100006.98
2018-03-01T23:16:32.764Z,100012.56
2018-03-01T23:19:03.436Z,99998.78
2018-03-01T23:21:34.111Z,100001.32
2018-03-01T23:24:06.584Z,99999.93
2018-03-01T23:26:38.093Z,99992.52
2018-03-01T23:29:09.152Z,99990.75
2018-03-01T23:31:40.284Z,99987.84
2018-03-01T23:34:10.631Z,99989.38
2018-03-01T23:36:41.712Z,99985.17
2018-03-01T23:39:13.290Z,99985.70
2018-03-01T23:41:44.503Z,99981.62
2018-03-01T23:44:14.952Z,99971.46
2018-03-01T23:46:46.493Z,99967.45
2018-03-01T23:49:21.343Z,99962.20
2018-03-01T23:51:53.586Z,99956.29
2018-03-01T23:54:22.857Z,99952.39
2018-03-01T23:56:51.868Z,99956.27
2018-03-01T23:59:22.440Z,99956.15
